sensor_id;sensor_type;location;lat;lon;timestamp;temperature;humidity
66568;DHT22;53422;49.296;6.900;2023-04-01T00:02:07;9.60;99.90
66568;DHT22;53422;49.296;6.900;2023-04-01T00:04:33;9.60;99.90
66568;DHT22;53422;49.296;6.900;2023-04-01T00:06:59;9.60;99.90
66568;DHT22;53422;49.296;6.900;2023-04-01T00:09:25;9.60;99.90
66568;DHT22;53422;49.296;6.900;2023-04-01T00:11:51;9.60;99.90
66568;DHT22;53422;49.296;6.900;2023-04-01T00:14:17;9.60;99.90
66568;DHT22;53422;49.296;6.900;2023-04-01T00:16:43;9.60;99.90
66568;DHT22;53422;49.296;6.900;2023-04-01T00:19:09;9.60;99.90
66568;DHT22;53422;49.296;6.900;2023-04-01T00:21:34;9.70;99.90
66568;DHT22;53422;49.296;6.900;2023-04-01T00:24:01;9.60;99.90
66568;DHT22;53422;49.296;6.900;2023-04-01T00:26:26;9.60;99.90
66568;DHT22;53422;49.296;6.900;2023-04-01T00:28:52;9.60;99.90
66568;DHT22;53422;49.296;6.900;2023-04-01T00:31:18;9.60;99.90
66568;DHT22;53422;49.296;6.900;2023-04-01T00:33:44;9.60;99.90
66568;DHT22;53422;49.296;6.900;2023-04-01T00:36:15;9.60;99.90
66568;DHT22;53422;49.296;6.900;2023-04-01T00:38:42;9.60;99.90
66568;DHT22;53422;49.296;6.900;2023-04-01T00:41:10;9.60;99.90
66568;DHT22;53422;49.296;6.900;2023-04-01T00:43:41;9.60;99.90
66568;DHT22;53422;49.296;6.900;2023-04-01T00:46:06;9.50;99.90
66568;DHT22;53422;49.296;6.900;2023-04-01T00:48:39;9.60;99.90
66568;DHT22;53422;49.296;6.900;2023-04-01T00:51:14;9.50;99.90
66568;DHT22;53422;49.296;6.900;2023-04-01T00:53:47;9.50;99.90
66568;DHT22;53422;49.296;6.900;2023-04-01T00:56:27;9.50;99.90
66568;DHT22;53422;49.296;6.900;2023-04-01T00:59:06;9.50;99.90
66568;DHT22;53422;49.296;6.900;2023-04-01T01:01:34;9.60;99.90
66568;DHT22;53422;49.296;6.900;2023-04-01T01:04:01;9.60;99.90
66568;DHT22;53422;49.296;6.900;2023-04-01T01:06:45;9.50;99.90
66568;DHT22;53422;49.296;6.900;2023-04-01T01:09:19;9.50;99.90
66568;DHT22;53422;49.296;6.900;2023-04-01T01:12:14;9.60;99.90
66568;DHT22;53422;49.296;6.900;2023-04-01T01:17:47;9.60;99.90
66568;DHT22;53422;49.296;6.900;2023-04-01T01:33:47;9.50;99.90
66568;DHT22;53422;49.296;6.900;2023-04-01T01:36:17;9.50;99.90
66568;DHT22;53422;49.296;6.900;2023-04-01T01:38:45;9.50;99.90
66568;DHT22;53422;49.296;6.900;2023-04-01T01:41:13;9.50;99.90
66568;DHT22;53422;49.296;6.900;2023-04-01T01:43:43;9.50;99.90
66568;DHT22;53422;49.296;6.900;2023-04-01T01:46:13;9.40;99.90
66568;DHT22;53422;49.296;6.900;2023-04-01T01:48:41;9.50;99.90
66568;DHT22;53422;49.296;6.900;2023-04-01T01:51:07;9.40;99.90
66568;DHT22;53422;49.296;6.900;2023-04-01T01:53:33;9.40;99.90
66568;DHT22;53422;49.296;6.900;2023-04-01T01:55:59;9.40;99.90
66568;DHT22;53422;49.296;6.900;2023-04-01T01:58:27;9.40;99.90
66568;DHT22;53422;49.296;6.900;2023-04-01T02:00:57;9.40;99.90
66568;DHT22;53422;49.296;6.900;2023-04-01T02:03:25;9.40;99.90
66568;DHT22;53422;49.296;6.900;2023-04-01T02:05:55;9.40;99.90
66568;DHT22;53422;49.296;6.900;2023-04-01T02:08:29;9.30;99.90
66568;DHT22;53422;49.296;6.900;2023-04-01T02:11:01;9.40;99.90
66568;DHT22;53422;49.296;6.900;2023-04-01T02:13:44;9.40;99.90
66568;DHT22;53422;49.296;6.900;2023-04-01T02:16:34;9.40;99.90
66568;DHT22;53422;49.296;6.900;2023-04-01T02:19:03;9.40;99.90
66568;DHT22;53422;49.296;6.900;2023-04-01T02:21:33;9.40;99.90
66568;DHT22;53422;49.296;6.900;2023-04-01T02:24:02;9.40;99.90
66568;DHT22;53422;49.296;6.900;2023-04-01T02:26:30;9.30;99.90
66568;DHT22;53422;49.296;6.900;2023-04-01T02:28:56;9.40;99.90
66568;DHT22;53422;49.296;6.900;2023-04-01T02:31:23;9.40;99.90
66568;DHT22;53422;49.296;6.900;2023-04-01T02:33:51;9.30;99.90
66568;DHT22;53422;49.296;6.900;2023-04-01T02:36:17;9.30;99.90
66568;DHT22;53422;49.296;6.900;2023-04-01T02:38:45;9.30;99.90
66568;DHT22;53422;49.296;6.900;2023-04-01T02:41:12;9.30;99.90
66568;DHT22;53422;49.296;6.900;2023-04-01T02:43:37;9.30;99.90
66568;DHT22;53422;49.296;6.900;2023-04-01T02:46:03;9.30;99.90
66568;DHT22;53422;49.296;6.900;2023-04-01T02:48:29;9.30;99.90
66568;DHT22;53422;49.296;6.900;2023-04-01T02:50:55;9.30;99.90
66568;DHT22;53422;49.296;6.900;2023-04-01T02:53:21;9.30;99.90
66568;DHT22;53422;49.296;6.900;2023-04-01T02:55:47;9.30;99.90
66568;DHT22;53422;49.296;6.900;2023-04-01T02:58:16;9.30;99.90
66568;DHT22;53422;49.296;6.900;2023-04-01T03:00:42;9.30;99.90
66568;DHT22;53422;49.296;6.900;2023-04-01T03:03:08;9.30;99.90
66568;DHT22;53422;49.296;6.900;2023-04-01T03:05:34;9.30;99.90
66568;DHT22;53422;49.296;6.900;2023-04-01T03:08:00;9.30;99.90
66568;DHT22;53422;49.296;6.900;2023-04-01T03:10:25;9.20;99.90
66568;DHT22;53422;49.296;6.900;2023-04-01T03:12:51;9.30;99.90
66568;DHT22;53422;49.296;6.900;2023-04-01T03:15:17;9.30;99.90
66568;DHT22;53422;49.296;6.900;2023-04-01T03:17:43;9.30;99.90
66568;DHT22;53422;49.296;6.900;2023-04-01T03:20:09;9.30;99.90
66568;DHT22;53422;49.296;6.900;2023-04-01T03:22:36;9.30;99.90
66568;DHT22;53422;49.296;6.900;2023-04-01T03:25:03;9.30;99.90
66568;DHT22;53422;49.296;6.900;2023-04-01T03:27:29;9.30;99.90
66568;DHT22;53422;49.296;6.900;2023-04-01T03:29:55;9.30;99.90
66568;DHT22;53422;49.296;6.900;2023-04-01T03:32:21;9.20;99.90
66568;DHT22;53422;49.296;6.900;2023-04-01T03:34:46;9.30;99.90
66568;DHT22;53422;49.296;6.900;2023-04-01T03:37:12;9.20;99.90
66568;DHT22;53422;49.296;6.900;2023-04-01T03:39:38;9.20;99.90
66568;DHT22;53422;49.296;6.900;2023-04-01T03:42:04;9.20;99.90
66568;DHT22;53422;49.296;6.900;2023-04-01T03:44:33;9.20;99.90
66568;DHT22;53422;49.296;6.900;2023-04-01T03:46:59;9.20;99.90
66568;DHT22;53422;49.296;6.900;2023-04-01T03:49:25;9.20;99.90
66568;DHT22;53422;49.296;6.900;2023-04-01T03:51:51;9.20;99.90
66568;DHT22;53422;49.296;6.900;2023-04-01T03:54:17;9.20;99.90
66568;DHT22;53422;49.296;6.900;2023-04-01T03:56:45;9.20;99.90
66568;DHT22;53422;49.296;6.900;2023-04-01T03:59:11;9.10;99.90
66568;DHT22;53422;49.296;6.900;2023-04-01T04:01:37;9.20;99.90
66568;DHT22;53422;49.296;6.900;2023-04-01T04:04:03;9.20;99.90
66568;DHT22;53422;49.296;6.900;2023-04-01T04:06:28;9.20;99.90
66568;DHT22;53422;49.296;6.900;2023-04-01T04:08:54;9.20;99.90
66568;DHT22;53422;49.296;6.900;2023-04-01T04:11:21;9.10;99.90
66568;DHT22;53422;49.296;6.900;2023-04-01T04:13:47;9.00;99.90
66568;DHT22;53422;49.296;6.900;2023-04-01T04:16:16;9.10;99.90
66568;DHT22;53422;49.296;6.900;2023-04-01T04:18:42;9.10;99.90
66568;DHT22;53422;49.296;6.900;2023-04-01T04:21:14;9.10;99.90
66568;DHT22;53422;49.296;6.900;2023-04-01T04:23:41;9.10;99.90
66568;DHT22;53422;49.296;6.900;2023-04-01T04:26:08;9.10;99.90
66568;DHT22;53422;49.296;6.900;2023-04-01T04:28:34;9.00;99.90
66568;DHT22;53422;49.296;6.900;2023-04-01T04:31:00;9.10;99.90
66568;DHT22;53422;49.296;6.900;2023-04-01T04:33:26;9.00;99.90
66568;DHT22;53422;49.296;6.900;2023-04-01T04:35:55;9.00;99.90
66568;DHT22;53422;49.296;6.900;2023-04-01T04:38:21;9.00;99.90
66568;DHT22;53422;49.296;6.900;2023-04-01T04:40:47;9.00;99.90
66568;DHT22;53422;49.296;6.900;2023-04-01T04:43:14;9.00;99.90
66568;DHT22;53422;49.296;6.900;2023-04-01T04:45:40;9.00;99.90
66568;DHT22;53422;49.296;6.900;2023-04-01T04:48:11;9.00;99.90
66568;DHT22;53422;49.296;6.900;2023-04-01T04:50:41;9.00;99.90
66568;DHT22;53422;49.296;6.900;2023-04-01T04:53:12;9.10;99.90
66568;DHT22;53422;49.296;6.900;2023-04-01T04:55:47;9.10;99.90
66568;DHT22;53422;49.296;6.900;2023-04-01T04:58:13;9.10;99.90
66568;DHT22;53422;49.296;6.900;2023-04-01T05:00:39;9.00;99.90
66568;DHT22;53422;49.296;6.900;2023-04-01T05:03:04;9.00;99.90
66568;DHT22;53422;49.296;6.900;2023-04-01T05:05:30;9.00;99.90
66568;DHT22;53422;49.296;6.900;2023-04-01T05:07:56;8.90;99.90
66568;DHT22;53422;49.296;6.900;2023-04-01T05:10:21;9.00;99.90
66568;DHT22;53422;49.296;6.900;2023-04-01T05:12:47;8.90;99.90
66568;DHT22;53422;49.296;6.900;2023-04-01T05:15:12;8.90;99.90
66568;DHT22;53422;49.296;6.900;2023-04-01T05:17:39;8.90;99.90
66568;DHT22;53422;49.296;6.900;2023-04-01T05:20:05;8.90;99.90
66568;DHT22;53422;49.296;6.900;2023-04-01T05:22:31;9.00;99.90
66568;DHT22;53422;49.296;6.900;2023-04-01T05:24:57;9.00;99.90
66568;DHT22;53422;49.296;6.900;2023-04-01T05:27:22;9.00;99.90
66568;DHT22;53422;49.296;6.900;2023-04-01T05:29:48;9.00;99.90
66568;DHT22;53422;49.296;6.900;2023-04-01T05:32:13;8.90;99.90
66568;DHT22;53422;49.296;6.900;2023-04-01T05:34:40;9.00;99.90
66568;DHT22;53422;49.296;6.900;2023-04-01T05:37:06;8.90;99.90
66568;DHT22;53422;49.296;6.900;2023-04-01T05:39:37;9.00;99.90
66568;DHT22;53422;49.296;6.900;2023-04-01T05:42:05;9.00;99.90
66568;DHT22;53422;49.296;6.900;2023-04-01T05:44:30;8.90;99.90
66568;DHT22;53422;49.296;6.900;2023-04-01T05:46:56;8.90;99.90
66568;DHT22;53422;49.296;6.900;2023-04-01T05:49:22;8.90;99.90
66568;DHT22;53422;49.296;6.900;2023-04-01T05:51:48;8.90;99.90
66568;DHT22;53422;49.296;6.900;2023-04-01T05:54:13;9.00;99.90
66568;DHT22;53422;49.296;6.900;2023-04-01T05:56:39;9.00;99.90
66568;DHT22;53422;49.296;6.900;2023-04-01T05:59:04;8.90;99.90
66568;DHT22;53422;49.296;6.900;2023-04-01T06:01:30;9.00;99.90
66568;DHT22;53422;49.296;6.900;2023-04-01T06:03:56;9.00;99.90
66568;DHT22;53422;49.296;6.900;2023-04-01T06:06:30;9.00;99.90
66568;DHT22;53422;49.296;6.900;2023-04-01T06:09:00;9.00;99.90
66568;DHT22;53422;49.296;6.900;2023-04-01T06:22:40;8.90;99.90
66568;DHT22;53422;49.296;6.900;2023-04-01T06:34:23;8.90;99.90
66568;DHT22;53422;49.296;6.900;2023-04-01T06:40:12;8.90;99.90
66568;DHT22;53422;49.296;6.900;2023-04-01T06:43:10;9.00;99.90
66568;DHT22;53422;49.296;6.900;2023-04-01T06:54:21;9.10;99.90
66568;DHT22;53422;49.296;6.900;2023-04-01T06:56:55;9.00;99.90
66568;DHT22;53422;49.296;6.900;2023-04-01T06:59:26;9.10;99.90
66568;DHT22;53422;49.296;6.900;2023-04-01T07:02:19;9.10;99.90
66568;DHT22;53422;49.296;6.900;2023-04-01T07:04:45;9.10;99.90
66568;DHT22;53422;49.296;6.900;2023-04-01T07:09:54;9.10;99.90
66568;DHT22;53422;49.296;6.900;2023-04-01T07:12:29;9.10;99.90
66568;DHT22;53422;49.296;6.900;2023-04-01T07:14:58;9.10;99.90
66568;DHT22;53422;49.296;6.900;2023-04-01T07:17:30;9.10;99.90
66568;DHT22;53422;49.296;6.900;2023-04-01T07:22:49;9.10;99.90
66568;DHT22;53422;49.296;6.900;2023-04-01T07:25:37;9.10;99.90
66568;DHT22;53422;49.296;6.900;2023-04-01T07:28:06;9.20;99.90
66568;DHT22;53422;49.296;6.900;2023-04-01T07:30:52;9.20;99.90
66568;DHT22;53422;49.296;6.900;2023-04-01T07:34:13;9.20;99.90
66568;DHT22;53422;49.296;6.900;2023-04-01T07:42:45;9.20;99.90
66568;DHT22;53422;49.296;6.900;2023-04-01T07:45:30;9.20;99.90
66568;DHT22;53422;49.296;6.900;2023-04-01T07:48:22;9.20;99.90
66568;DHT22;53422;49.296;6.900;2023-04-01T07:51:03;9.30;99.90
66568;DHT22;53422;49.296;6.900;2023-04-01T08:07:18;9.40;99.90
66568;DHT22;53422;49.296;6.900;2023-04-01T08:10:19;9.40;99.90
66568;DHT22;53422;49.296;6.900;2023-04-01T08:21:28;9.50;99.90
66568;DHT22;53422;49.296;6.900;2023-04-01T08:23:57;9.50;99.90
66568;DHT22;53422;49.296;6.900;2023-04-01T08:26:37;9.50;99.90
66568;DHT22;53422;49.296;6.900;2023-04-01T08:29:13;9.50;99.90
66568;DHT22;53422;49.296;6.900;2023-04-01T08:31:49;9.50;99.90
66568;DHT22;53422;49.296;6.900;2023-04-01T08:34:51;9.60;99.90
66568;DHT22;53422;49.296;6.900;2023-04-01T08:37:24;9.50;99.90
66568;DHT22;53422;49.296;6.900;2023-04-01T08:39:58;9.50;99.90
66568;DHT22;53422;49.296;6.900;2023-04-01T09:04:06;9.70;99.90
66568;DHT22;53422;49.296;6.900;2023-04-01T09:10:06;9.60;99.90
66568;DHT22;53422;49.296;6.900;2023-04-01T09:13:18;9.70;99.90
66568;DHT22;53422;49.296;6.900;2023-04-01T09:18:54;9.70;99.90
66568;DHT22;53422;49.296;6.900;2023-04-01T09:27:31;9.70;99.90
66568;DHT22;53422;49.296;6.900;2023-04-01T09:38:05;9.70;99.90
66568;DHT22;53422;49.296;6.900;2023-04-01T09:52:01;9.70;99.90
66568;DHT22;53422;49.296;6.900;2023-04-01T10:20:19;9.80;99.90
66568;DHT22;53422;49.296;6.900;2023-04-01T10:36:27;9.90;99.90
66568;DHT22;53422;49.296;6.900;2023-04-01T10:56:21;10.00;99.90
66568;DHT22;53422;49.296;6.900;2023-04-01T10:59:20;10.00;99.90
66568;DHT22;53422;49.296;6.900;2023-04-01T11:26:53;10.10;99.90
66568;DHT22;53422;49.296;6.900;2023-04-01T11:29:47;10.20;99.90
66568;DHT22;53422;49.296;6.900;2023-04-01T11:40:54;10.20;99.90
66568;DHT22;53422;49.296;6.900;2023-04-01T11:43:40;10.10;99.90
66568;DHT22;53422;49.296;6.900;2023-04-01T11:46:30;10.20;99.90
66568;DHT22;53422;49.296;6.900;2023-04-01T11:49:33;10.20;99.90
66568;DHT22;53422;49.296;6.900;2023-04-01T12:50:31;10.20;99.90
66568;DHT22;53422;49.296;6.900;2023-04-01T12:55:49;10.20;99.90
66568;DHT22;53422;49.296;6.900;2023-04-01T12:58:35;10.30;99.90
66568;DHT22;53422;49.296;6.900;2023-04-01T13:17:24;10.30;99.90
66568;DHT22;53422;49.296;6.900;2023-04-01T13:22:44;10.30;99.90
66568;DHT22;53422;49.296;6.900;2023-04-01T13:28:15;10.30;99.90
66568;DHT22;53422;49.296;6.900;2023-04-01T13:30:48;10.30;99.90
66568;DHT22;53422;49.296;6.900;2023-04-01T13:34:00;10.30;99.90
66568;DHT22;53422;49.296;6.900;2023-04-01T13:36:45;10.30;99.90
66568;DHT22;53422;49.296;6.900;2023-04-01T13:44:48;10.20;99.90
66568;DHT22;53422;49.296;6.900;2023-04-01T13:53:24;10.20;99.90
66568;DHT22;53422;49.296;6.900;2023-04-01T14:04:33;10.10;99.90
66568;DHT22;53422;49.296;6.900;2023-04-01T14:18:17;10.10;99.90
66568;DHT22;53422;49.296;6.900;2023-04-01T14:26:17;10.10;99.90
66568;DHT22;53422;49.296;6.900;2023-04-01T14:29:02;10.10;99.90
66568;DHT22;53422;49.296;6.900;2023-04-01T14:51:02;10.00;99.90
66568;DHT22;53422;49.296;6.900;2023-04-01T14:53:35;10.00;99.90
66568;DHT22;53422;49.296;6.900;2023-04-01T14:56:04;10.00;99.90
66568;DHT22;53422;49.296;6.900;2023-04-01T14:58:47;10.00;99.90
66568;DHT22;53422;49.296;6.900;2023-04-01T15:01:40;10.10;99.90
66568;DHT22;53422;49.296;6.900;2023-04-01T15:04:41;10.10;99.90
66568;DHT22;53422;49.296;6.900;2023-04-01T15:10:42;10.10;99.90
66568;DHT22;53422;49.296;6.900;2023-04-01T15:23:28;10.00;99.90
66568;DHT22;53422;49.296;6.900;2023-04-01T15:31:21;10.00;99.90
66568;DHT22;53422;49.296;6.900;2023-04-01T15:39:16;10.00;99.90
66568;DHT22;53422;49.296;6.900;2023-04-01T15:53:09;9.90;99.90
66568;DHT22;53422;49.296;6.900;2023-04-01T15:55:59;9.90;99.90
66568;DHT22;53422;49.296;6.900;2023-04-01T16:15:59;9.80;99.90
66568;DHT22;53422;49.296;6.900;2023-04-01T16:21:05;9.90;99.90
66568;DHT22;53422;49.296;6.900;2023-04-01T16:26:43;9.80;99.90
66568;DHT22;53422;49.296;6.900;2023-04-01T16:29:21;9.80;99.90
66568;DHT22;53422;49.296;6.900;2023-04-01T16:34:54;9.80;99.90
66568;DHT22;53422;49.296;6.900;2023-04-01T16:43:41;9.80;99.90
66568;DHT22;53422;49.296;6.900;2023-04-01T16:46:30;9.80;99.90
66568;DHT22;53422;49.296;6.900;2023-04-01T17:02:33;9.70;99.90
66568;DHT22;53422;49.296;6.900;2023-04-01T17:05:01;9.70;99.90
66568;DHT22;53422;49.296;6.900;2023-04-01T17:07:41;9.70;99.90
66568;DHT22;53422;49.296;6.900;2023-04-01T17:22:26;9.60;99.90
66568;DHT22;53422;49.296;6.900;2023-04-01T17:35:48;9.60;99.90
66568;DHT22;53422;49.296;6.900;2023-04-01T17:41:36;9.60;99.90
66568;DHT22;53422;49.296;6.900;2023-04-01T17:49:45;9.60;99.90
66568;DHT22;53422;49.296;6.900;2023-04-01T17:52:44;9.50;99.90
66568;DHT22;53422;49.296;6.900;2023-04-01T17:55:42;9.50;99.90
66568;DHT22;53422;49.296;6.900;2023-04-01T17:58:21;9.50;99.90
66568;DHT22;53422;49.296;6.900;2023-04-01T18:06:35;9.50;99.90
66568;DHT22;53422;49.296;6.900;2023-04-01T18:09:08;9.40;99.90
66568;DHT22;53422;49.296;6.900;2023-04-01T18:17:25;9.40;99.90
66568;DHT22;53422;49.296;6.900;2023-04-01T18:22:34;9.40;99.90
66568;DHT22;53422;49.296;6.900;2023-04-01T18:25:19;9.40;99.90
66568;DHT22;53422;49.296;6.900;2023-04-01T18:30:40;9.40;99.90
66568;DHT22;53422;49.296;6.900;2023-04-01T18:33:15;9.40;99.90
66568;DHT22;53422;49.296;6.900;2023-04-01T18:35:58;9.40;99.90
66568;DHT22;53422;49.296;6.900;2023-04-01T18:38:29;9.40;99.90
66568;DHT22;53422;49.296;6.900;2023-04-01T18:41:14;9.40;99.90
66568;DHT22;53422;49.296;6.900;2023-04-01T18:49:57;9.40;99.90
66568;DHT22;53422;49.296;6.900;2023-04-01T18:52:36;9.40;99.90
66568;DHT22;53422;49.296;6.900;2023-04-01T18:57:46;9.40;99.90
66568;DHT22;53422;49.296;6.900;2023-04-01T19:00:20;9.40;99.90
66568;DHT22;53422;49.296;6.900;2023-04-01T19:05:40;9.40;99.90
66568;DHT22;53422;49.296;6.900;2023-04-01T19:27:29;9.30;99.90
66568;DHT22;53422;49.296;6.900;2023-04-01T19:36:36;9.30;99.90
66568;DHT22;53422;49.296;6.900;2023-04-01T19:42:13;9.30;99.90
66568;DHT22;53422;49.296;6.900;2023-04-01T19:56:19;9.30;99.90
66568;DHT22;53422;49.296;6.900;2023-04-01T19:58:58;9.30;99.90
66568;DHT22;53422;49.296;6.900;2023-04-01T20:04:17;9.30;99.90
66568;DHT22;53422;49.296;6.900;2023-04-01T20:10:41;9.30;99.90
66568;DHT22;53422;49.296;6.900;2023-04-01T20:15:32;9.30;99.90
66568;DHT22;53422;49.296;6.900;2023-04-01T20:18:01;9.30;99.90
66568;DHT22;53422;49.296;6.900;2023-04-01T20:20:29;9.30;99.90
66568;DHT22;53422;49.296;6.900;2023-04-01T20:25:43;9.30;99.90
66568;DHT22;53422;49.296;6.900;2023-04-01T20:28:42;9.30;99.90
66568;DHT22;53422;49.296;6.900;2023-04-01T20:31:25;9.30;99.90
66568;DHT22;53422;49.296;6.900;2023-04-01T20:44:50;9.30;99.90
66568;DHT22;53422;49.296;6.900;2023-04-01T20:50:19;9.30;99.90
66568;DHT22;53422;49.296;6.900;2023-04-01T20:56:06;9.30;99.90
66568;DHT22;53422;49.296;6.900;2023-04-01T21:14:34;9.20;99.90
66568;DHT22;53422;49.296;6.900;2023-04-01T21:20:17;9.20;99.90
66568;DHT22;53422;49.296;6.900;2023-04-01T21:22:59;9.30;99.90
66568;DHT22;53422;49.296;6.900;2023-04-01T21:28:35;9.20;99.90
66568;DHT22;53422;49.296;6.900;2023-04-01T21:31:31;9.20;99.90
66568;DHT22;53422;49.296;6.900;2023-04-01T21:40:02;9.20;99.90
66568;DHT22;53422;49.296;6.900;2023-04-01T21:45:13;9.20;99.90
66568;DHT22;53422;49.296;6.900;2023-04-01T22:02:03;9.10;99.90
66568;DHT22;53422;49.296;6.900;2023-04-01T22:07:33;9.10;99.90
66568;DHT22;53422;49.296;6.900;2023-04-01T22:12:39;9.10;99.90
66568;DHT22;53422;49.296;6.900;2023-04-01T22:18:04;9.10;99.90
66568;DHT22;53422;49.296;6.900;2023-04-01T22:21:05;9.10;99.90
66568;DHT22;53422;49.296;6.900;2023-04-01T22:29:30;9.10;99.90
66568;DHT22;53422;49.296;6.900;2023-04-01T22:32:15;9.10;99.90
66568;DHT22;53422;49.296;6.900;2023-04-01T22:35:10;9.10;99.90
66568;DHT22;53422;49.296;6.900;2023-04-01T22:42:58;9.10;99.90
66568;DHT22;53422;49.296;6.900;2023-04-01T22:56:01;9.10;99.90
66568;DHT22;53422;49.296;6.900;2023-04-01T22:58:38;9.10;99.90
66568;DHT22;53422;49.296;6.900;2023-04-01T23:01:13;9.10;99.90
66568;DHT22;53422;49.296;6.900;2023-04-01T23:03:41;9.10;99.90
66568;DHT22;53422;49.296;6.900;2023-04-01T23:06:17;9.10;99.90
66568;DHT22;53422;49.296;6.900;2023-04-01T23:11:33;9.10;99.90
66568;DHT22;53422;49.296;6.900;2023-04-01T23:20:14;9.00;99.90
66568;DHT22;53422;49.296;6.900;2023-04-01T23:33:30;9.10;99.90
66568;DHT22;53422;49.296;6.900;2023-04-01T23:35:59;9.10;99.90
66568;DHT22;53422;49.296;6.900;2023-04-01T23:38:39;9.10;99.90
66568;DHT22;53422;49.296;6.900;2023-04-01T23:41:22;9.00;99.90
66568;DHT22;53422;49.296;6.900;2023-04-01T23:46:30;9.10;99.90
66568;DHT22;53422;49.296;6.900;2023-04-01T23:48:57;9.10;99.90
66568;DHT22;53422;49.296;6.900;2023-04-01T23:51:26;9.10;99.90
66568;DHT22;53422;49.296;6.900;2023-04-01T23:54:00;9.10;99.90
66568;DHT22;53422;49.296;6.900;2023-04-01T23:56:43;9.10;99.90
66568;DHT22;53422;49.296;6.900;2023-04-01T23:59:33;9.10;99.90
